createdAt,value
2023-03-16T00:00:45.943Z,4.30
2023-03-16T00:03:19.581Z,4.13
2023-03-16T00:05:47.131Z,4.60
2023-03-16T00:08:14.317Z,4.28
2023-03-16T00:10:46.678Z,4.47
2023-03-16T00:13:16.935Z,4.00
2023-03-16T00:15:52.385Z,4.75
2023-03-16T00:18:20.352Z,4.90
2023-03-16T00:20:50.657Z,4.35
2023-03-16T00:23:17.230Z,4.78
2023-03-16T00:25:43.815Z,5.35
2023-03-16T00:28:14.077Z,5.10
2023-03-16T00:30:40.807Z,5.18
2023-03-16T00:33:07.326Z,4.78
2023-03-16T00:35:34.955Z,4.90
2023-03-16T00:38:01.509Z,4.68
2023-03-16T00:40:28.356Z,4.78
2023-03-16T00:42:55.148Z,4.78
2023-03-16T00:45:21.689Z,4.93
2023-03-16T00:47:48.306Z,4.72
2023-03-16T00:50:14.898Z,4.90
2023-03-16T00:52:42.323Z,4.95
2023-03-16T00:55:09.329Z,5.25
2023-03-16T00:57:35.843Z,4.65
2023-03-16T01:00:12.679Z,4.65
2023-03-16T01:02:39.283Z,5.03
2023-03-16T01:05:06.033Z,5.60
2023-03-16T01:07:32.628Z,5.00
2023-03-16T01:09:59.115Z,4.60
2023-03-16T01:12:26.283Z,5.05
2023-03-16T01:14:53.938Z,6.50
2023-03-16T01:17:21.949Z,5.10
2023-03-16T01:19:50.001Z,4.97
2023-03-16T01:22:16.574Z,4.63
2023-03-16T01:24:45.239Z,4.70
2023-03-16T01:27:12.782Z,4.53
2023-03-16T01:29:40.191Z,4.60
2023-03-16T01:32:07.411Z,4.55
2023-03-16T01:34:34.238Z,5.60
2023-03-16T01:37:01.119Z,4.82
2023-03-16T01:39:38.949Z,4.95
2023-03-16T01:42:06.716Z,5.57
2023-03-16T01:44:49.860Z,5.25
2023-03-16T01:47:16.685Z,4.82
2023-03-16T01:49:48.000Z,4.70
2023-03-16T01:52:22.611Z,4.57
2023-03-16T01:54:51.419Z,4.60
2023-03-16T01:57:26.080Z,4.60
2023-03-16T01:59:55.553Z,4.43
2023-03-16T02:02:23.746Z,4.07
2023-03-16T02:05:09.316Z,4.07
2023-03-16T02:07:39.837Z,4.68
2023-03-16T02:10:07.477Z,4.13
2023-03-16T02:12:34.589Z,4.15
2023-03-16T02:15:03.306Z,3.80
2023-03-16T02:17:31.237Z,4.05
2023-03-16T02:20:23.214Z,3.78
2023-03-16T02:22:56.589Z,3.72
2023-03-16T02:25:26.324Z,3.88
2023-03-16T02:28:15.553Z,4.32
2023-03-16T02:30:44.277Z,3.58
2023-03-16T02:33:11.636Z,3.88
2023-03-16T02:35:38.201Z,3.83
2023-03-16T02:38:05.800Z,3.63
2023-03-16T02:40:38.910Z,3.80
2023-03-16T02:43:19.400Z,3.63
2023-03-16T02:45:56.890Z,3.70
2023-03-16T02:48:46.484Z,3.97
2023-03-16T02:51:13.728Z,3.72
2023-03-16T02:53:40.205Z,3.75
2023-03-16T02:56:07.827Z,3.75
2023-03-16T02:58:36.411Z,3.78
2023-03-16T03:01:07.078Z,3.28
2023-03-16T03:03:35.269Z,3.28
2023-03-16T03:06:02.253Z,3.05
2023-03-16T03:08:34.176Z,3.58
2023-03-16T03:11:00.951Z,3.00
2023-03-16T03:13:27.569Z,3.10
2023-03-16T03:15:54.388Z,3.25
2023-03-16T03:18:25.342Z,2.90
2023-03-16T03:20:52.732Z,3.17
2023-03-16T03:23:19.288Z,3.25
2023-03-16T03:25:46.299Z,2.72
2023-03-16T03:28:13.383Z,2.58
2023-03-16T03:30:40.374Z,3.40
2023-03-16T03:33:07.081Z,2.75
2023-03-16T03:35:34.911Z,2.60
2023-03-16T03:38:01.449Z,2.60
2023-03-16T03:40:28.626Z,2.40
2023-03-16T03:42:58.429Z,2.85
2023-03-16T03:45:25.428Z,2.80
2023-03-16T03:47:52.371Z,2.53
2023-03-16T03:50:21.091Z,3.78
2023-03-16T03:53:17.098Z,3.05
2023-03-16T03:56:18.971Z,3.08
2023-03-16T03:58:46.182Z,2.90
2023-03-16T04:01:18.627Z,2.55
2023-03-16T04:03:46.061Z,2.90
2023-03-16T04:06:15.066Z,2.78
2023-03-16T04:08:41.900Z,2.38
2023-03-16T04:11:11.984Z,2.30
2023-03-16T04:13:39.801Z,3.15
2023-03-16T04:16:06.396Z,2.60
2023-03-16T04:18:40.479Z,2.50
2023-03-16T04:21:12.852Z,2.78
2023-03-16T04:23:40.411Z,2.70
2023-03-16T04:26:06.961Z,2.45
2023-03-16T04:28:33.904Z,2.50
2023-03-16T04:31:05.470Z,2.20
2023-03-16T04:33:37.232Z,3.05
2023-03-16T04:36:04.377Z,3.00
2023-03-16T04:38:35.732Z,3.03
2023-03-16T04:41:03.367Z,2.65
2023-03-16T04:43:34.572Z,2.65
2023-03-16T04:46:08.145Z,2.50
2023-03-16T04:48:35.203Z,2.78
2023-03-16T04:51:04.100Z,2.42
2023-03-16T04:53:33.458Z,2.55
2023-03-16T04:56:08.129Z,2.90
2023-03-16T04:58:35.644Z,3.33
2023-03-16T05:01:03.613Z,2.35
2023-03-16T05:03:31.224Z,2.40
2023-03-16T05:05:57.761Z,3.13
2023-03-16T05:08:26.709Z,2.13
2023-03-16T05:10:58.024Z,3.28
2023-03-16T05:13:25.909Z,2.25
2023-03-16T05:15:54.241Z,2.55
2023-03-16T05:18:33.230Z,2.60
2023-03-16T05:21:00.238Z,2.90
2023-03-16T05:23:34.511Z,2.50
2023-03-16T05:26:03.733Z,2.20
2023-03-16T05:28:32.641Z,2.35
2023-03-16T05:31:03.994Z,2.20
2023-03-16T05:33:37.683Z,2.42
2023-03-16T05:36:07.996Z,1.98
2023-03-16T05:38:37.116Z,2.25
2023-03-16T05:41:06.146Z,2.22
2023-03-16T05:43:56.244Z,2.13
2023-03-16T05:46:26.659Z,2.42
2023-03-16T05:48:53.571Z,2.13
2023-03-16T05:51:21.341Z,3.08
2023-03-16T05:53:48.487Z,2.10
2023-03-16T05:56:28.458Z,2.47
2023-03-16T05:58:55.802Z,2.00
2023-03-16T06:01:23.183Z,2.58
2023-03-16T06:03:51.939Z,1.98
2023-03-16T06:06:22.700Z,2.55
2023-03-16T06:09:04.809Z,2.05
2023-03-16T06:11:32.954Z,3.17
2023-03-16T06:14:00.506Z,1.85
2023-03-16T06:16:27.533Z,2.22
2023-03-16T06:18:54.183Z,2.53
2023-03-16T06:21:20.931Z,2.28
2023-03-16T06:23:51.237Z,1.98
2023-03-16T06:26:19.602Z,1.88
2023-03-16T06:28:48.203Z,2.25
2023-03-16T06:31:15.474Z,1.70
2023-03-16T06:33:44.680Z,2.42
2023-03-16T06:36:11.931Z,1.73
2023-03-16T06:38:43.193Z,2.13
2023-03-16T06:41:30.403Z,2.38
2023-03-16T06:43:57.491Z,1.52
2023-03-16T06:46:24.062Z,1.92
2023-03-16T06:48:51.337Z,1.60
2023-03-16T06:51:18.633Z,1.77
2023-03-16T06:53:46.649Z,1.70
2023-03-16T06:56:13.612Z,2.03
2023-03-16T06:58:42.583Z,2.83
2023-03-16T07:01:09.291Z,1.90
2023-03-16T07:03:36.001Z,1.65
2023-03-16T07:06:12.480Z,2.00
2023-03-16T07:08:39.079Z,2.13
2023-03-16T07:11:05.894Z,2.13
2023-03-16T07:13:32.450Z,1.65
2023-03-16T07:15:59.068Z,1.75
2023-03-16T07:18:26.434Z,1.85
2023-03-16T07:20:54.708Z,2.00
2023-03-16T07:23:24.929Z,2.17
2023-03-16T07:25:53.705Z,1.90
2023-03-16T07:28:20.487Z,1.88
2023-03-16T07:31:02.631Z,1.80
2023-03-16T07:33:34.947Z,1.90
2023-03-16T07:36:05.841Z,1.88
2023-03-16T07:38:36.462Z,1.70
2023-03-16T07:41:03.311Z,1.90
2023-03-16T07:43:30.250Z,2.30
2023-03-16T07:45:56.986Z,1.90
2023-03-16T07:48:24.857Z,2.05
2023-03-16T07:50:56.194Z,1.85
2023-03-16T07:53:24.080Z,2.42
2023-03-16T07:55:59.119Z,2.17
2023-03-16T07:58:26.060Z,1.92
2023-03-16T08:00:55.856Z,1.90
2023-03-16T08:03:22.686Z,1.63
2023-03-16T08:05:49.960Z,1.58
2023-03-16T08:08:16.628Z,1.77
2023-03-16T08:10:44.004Z,1.85
2023-03-16T08:13:14.294Z,2.00
2023-03-16T08:15:46.028Z,1.75
2023-03-16T08:18:21.641Z,2.15
2023-03-16T08:20:48.382Z,1.88
2023-03-16T08:23:15.576Z,2.05
2023-03-16T08:25:42.863Z,1.83
2023-03-16T08:28:14.212Z,1.90
2023-03-16T08:30:46.049Z,1.75
2023-03-16T08:33:23.726Z,1.60
2023-03-16T08:35:52.079Z,1.90
2023-03-16T08:38:19.498Z,2.20
2023-03-16T08:40:48.706Z,1.75
2023-03-16T08:43:17.477Z,2.05
2023-03-16T08:45:48.706Z,1.77
2023-03-16T08:48:18.407Z,1.60
2023-03-16T08:50:48.391Z,2.03
2023-03-16T08:53:14.959Z,1.73
2023-03-16T08:55:41.803Z,1.67
2023-03-16T08:58:09.012Z,1.63
2023-03-16T09:00:36.445Z,1.60
2023-03-16T09:03:03.054Z,1.77
2023-03-16T09:05:30.682Z,1.77
2023-03-16T09:07:57.287Z,1.85
2023-03-16T09:10:23.823Z,2.00
2023-03-16T09:12:52.133Z,2.10
2023-03-16T09:15:19.816Z,2.10
2023-03-16T09:17:46.844Z,1.77
2023-03-16T09:20:22.333Z,1.90
2023-03-16T09:22:52.743Z,1.88
2023-03-16T09:25:20.583Z,1.70
2023-03-16T09:27:47.267Z,1.70
2023-03-16T09:30:14.434Z,1.70
2023-03-16T09:32:41.499Z,2.20
2023-03-16T09:35:08.255Z,1.98
2023-03-16T09:37:45.112Z,1.80
2023-03-16T09:40:23.644Z,2.03
2023-03-16T09:43:15.645Z,1.60
2023-03-16T09:45:47.287Z,1.63
2023-03-16T09:48:15.188Z,1.60
2023-03-16T09:50:48.667Z,1.98
2023-03-16T09:53:27.703Z,1.92
2023-03-16T09:55:58.073Z,1.92
2023-03-16T09:58:24.762Z,2.83
2023-03-16T10:00:54.463Z,1.77
2023-03-16T10:03:27.143Z,1.80
2023-03-16T10:05:57.415Z,1.83
2023-03-16T10:08:26.043Z,1.80
2023-03-16T10:11:11.472Z,1.85
2023-03-16T10:14:17.648Z,1.65
2023-03-16T10:16:48.458Z,1.63
2023-03-16T10:19:33.591Z,1.80
2023-03-16T10:22:02.424Z,1.77
2023-03-16T10:24:43.213Z,2.05
2023-03-16T10:27:17.120Z,1.63
2023-03-16T10:29:43.699Z,1.48
2023-03-16T10:32:16.605Z,1.70
2023-03-16T10:34:45.565Z,1.40
2023-03-16T10:37:13.851Z,1.77
2023-03-16T10:39:43.302Z,1.75
2023-03-16T10:42:16.980Z,1.77
2023-03-16T10:44:45.117Z,2.22
2023-03-16T10:47:23.224Z,1.52
2023-03-16T10:49:51.440Z,1.48
2023-03-16T10:52:19.780Z,1.88
2023-03-16T10:54:51.134Z,2.17
2023-03-16T10:57:25.705Z,1.60
2023-03-16T10:59:53.463Z,2.10
2023-03-16T11:02:23.631Z,1.58
2023-03-16T11:04:50.625Z,1.70
2023-03-16T11:07:18.655Z,2.00
2023-03-16T11:09:47.252Z,1.73
2023-03-16T11:12:27.568Z,1.85
2023-03-16T11:14:54.747Z,1.58
2023-03-16T11:17:28.551Z,1.70
2023-03-16T11:19:57.832Z,1.77
2023-03-16T11:22:25.355Z,2.08
2023-03-16T11:25:02.236Z,1.80
2023-03-16T11:27:37.836Z,1.60
2023-03-16T11:30:22.500Z,1.80
2023-03-16T11:32:51.185Z,2.00
2023-03-16T11:35:23.964Z,1.90
2023-03-16T11:38:06.005Z,2.17
2023-03-16T11:40:50.312Z,1.70
2023-03-16T11:43:34.921Z,1.67
2023-03-16T11:46:20.848Z,2.13
2023-03-16T11:48:53.364Z,1.60
2023-03-16T11:51:35.224Z,1.50
2023-03-16T11:54:01.764Z,1.88
2023-03-16T11:56:31.245Z,1.83
2023-03-16T11:59:13.705Z,1.60
2023-03-16T12:01:43.234Z,2.03
2023-03-16T12:04:18.308Z,1.60
2023-03-16T12:07:01.381Z,2.00
2023-03-16T12:09:47.165Z,1.67
2023-03-16T12:12:32.451Z,1.50
2023-03-16T12:17:27.583Z,1.80
2023-03-16T12:19:54.402Z,1.98
2023-03-16T12:22:32.993Z,1.58
2023-03-16T12:25:00.375Z,1.80
2023-03-16T12:27:29.339Z,1.63
2023-03-16T12:30:14.829Z,1.58
2023-03-16T12:33:00.027Z,1.50
2023-03-16T12:37:59.948Z,1.67
2023-03-16T12:40:32.921Z,1.50
2023-03-16T12:43:02.796Z,1.95
2023-03-16T12:45:48.313Z,2.10
2023-03-16T12:48:21.160Z,1.98
2023-03-16T12:50:58.622Z,2.10
2023-03-16T12:53:30.474Z,1.80
2023-03-16T12:55:57.944Z,1.50
2023-03-16T12:58:26.172Z,2.08
2023-03-16T13:00:57.894Z,1.63
2023-03-16T13:03:25.354Z,2.05
2023-03-16T13:05:53.980Z,2.30
2023-03-16T13:08:21.424Z,1.75
2023-03-16T13:11:05.061Z,1.70
2023-03-16T13:13:32.812Z,1.45
2023-03-16T13:16:22.333Z,1.70
2023-03-16T13:18:49.230Z,1.67
2023-03-16T13:21:17.813Z,1.83
2023-03-16T13:23:47.587Z,2.00
2023-03-16T13:26:18.753Z,2.20
2023-03-16T13:28:50.443Z,2.00
2023-03-16T13:31:36.095Z,1.90
2023-03-16T13:34:03.636Z,1.95
2023-03-16T13:36:30.730Z,1.80
2023-03-16T13:39:02.150Z,1.60
2023-03-16T13:41:28.852Z,1.55
2023-03-16T13:43:55.295Z,1.30
2023-03-16T13:46:27.197Z,1.75
2023-03-16T13:48:53.756Z,1.80
2023-03-16T13:51:22.814Z,2.10
2023-03-16T13:53:50.900Z,1.73
2023-03-16T13:56:19.448Z,1.70
2023-03-16T13:58:48.415Z,1.75
2023-03-16T14:01:23.808Z,2.00
2023-03-16T14:03:50.613Z,2.00
2023-03-16T14:06:26.654Z,1.67
2023-03-16T14:08:54.311Z,1.70
2023-03-16T14:11:20.835Z,2.00
2023-03-16T14:13:51.196Z,2.20
2023-03-16T14:16:18.824Z,2.05
2023-03-16T14:18:47.440Z,1.92
2023-03-16T14:21:24.615Z,2.10
2023-03-16T14:23:53.057Z,1.90
2023-03-16T14:26:19.823Z,1.98
2023-03-16T14:29:01.905Z,2.15
2023-03-16T14:31:33.209Z,2.50
2023-03-16T14:34:00.818Z,2.00
2023-03-16T14:36:33.844Z,2.17
2023-03-16T14:39:10.974Z,2.25
2023-03-16T14:41:38.602Z,2.00
2023-03-16T14:44:05.775Z,1.90
2023-03-16T14:46:33.859Z,2.17
2023-03-16T14:49:02.028Z,2.00
2023-03-16T14:51:29.595Z,1.75
2023-03-16T14:53:56.151Z,2.00
2023-03-16T14:56:23.312Z,2.10
2023-03-16T14:58:49.956Z,1.95
2023-03-16T15:01:17.937Z,1.65
2023-03-16T15:03:45.207Z,1.85
2023-03-16T15:06:12.064Z,2.17
2023-03-16T15:08:44.424Z,1.80
2023-03-16T15:11:11.715Z,2.60
2023-03-16T15:13:41.540Z,1.98
2023-03-16T15:16:12.586Z,2.25
2023-03-16T15:18:39.912Z,1.92
2023-03-16T15:21:12.768Z,2.55
2023-03-16T15:23:40.042Z,1.88
2023-03-16T15:26:07.525Z,1.95
2023-03-16T15:28:34.555Z,2.03
2023-03-16T15:31:02.171Z,1.80
2023-03-16T15:33:29.164Z,1.85
2023-03-16T15:35:57.235Z,2.35
2023-03-16T15:38:25.906Z,2.10
2023-03-16T15:40:53.185Z,1.95
2023-03-16T15:43:20.923Z,1.98
2023-03-16T15:45:47.841Z,2.30
2023-03-16T15:48:15.395Z,1.77
2023-03-16T15:50:44.322Z,1.80
2023-03-16T15:53:29.597Z,1.70
2023-03-16T15:55:59.365Z,1.90
2023-03-16T15:58:27.800Z,1.75
2023-03-16T16:00:55.514Z,2.13
2023-03-16T16:03:22.160Z,2.17
2023-03-16T16:05:48.856Z,1.98
2023-03-16T16:08:16.159Z,2.00
2023-03-16T16:10:43.490Z,2.08
2023-03-16T16:13:13.611Z,2.22
2023-03-16T16:15:41.568Z,2.05
2023-03-16T16:18:26.487Z,2.10
2023-03-16T16:20:53.980Z,1.90
2023-03-16T16:23:20.497Z,2.28
2023-03-16T16:25:47.404Z,2.10
2023-03-16T16:28:15.913Z,1.95
2023-03-16T16:30:42.524Z,1.95
2023-03-16T16:33:29.337Z,2.05
2023-03-16T16:35:57.498Z,2.00
2023-03-16T16:38:24.361Z,1.80
2023-03-16T16:40:52.285Z,1.80
2023-03-16T16:43:26.858Z,2.30
2023-03-16T16:45:53.899Z,2.10
2023-03-16T16:48:27.110Z,2.10
2023-03-16T16:50:53.625Z,2.08
2023-03-16T16:53:21.392Z,2.13
2023-03-16T16:55:48.655Z,2.30
2023-03-16T16:58:23.920Z,2.50
2023-03-16T17:00:58.126Z,1.95
2023-03-16T17:03:27.155Z,2.22
2023-03-16T17:05:54.762Z,1.95
2023-03-16T17:08:21.892Z,2.15
2023-03-16T17:10:48.417Z,2.13
2023-03-16T17:13:37.387Z,2.40
2023-03-16T17:16:04.049Z,1.90
2023-03-16T17:18:30.638Z,2.10
2023-03-16T17:20:58.018Z,2.60
2023-03-16T17:23:24.887Z,2.65
2023-03-16T17:25:52.242Z,2.20
2023-03-16T17:28:18.760Z,2.55
2023-03-16T17:30:47.960Z,2.33
2023-03-16T17:33:15.883Z,2.60
2023-03-16T17:35:44.240Z,2.78
2023-03-16T17:38:17.345Z,2.70
2023-03-16T17:40:44.004Z,3.20
2023-03-16T17:43:14.627Z,3.03
2023-03-16T17:45:41.338Z,2.63
2023-03-16T17:48:34.307Z,2.70
2023-03-16T17:51:01.111Z,2.70
2023-03-16T17:53:27.719Z,3.00
2023-03-16T17:55:54.325Z,2.20
2023-03-16T17:58:25.955Z,2.92
2023-03-16T18:00:53.431Z,2.95
2023-03-16T18:03:20.634Z,2.55
2023-03-16T18:05:47.775Z,2.50
2023-03-16T18:08:34.393Z,2.70
2023-03-16T18:11:02.212Z,2.63
2023-03-16T18:13:33.387Z,2.50
2023-03-16T18:16:00.503Z,2.80
2023-03-16T18:18:28.398Z,2.78
2023-03-16T18:20:57.059Z,2.83
2023-03-16T18:23:28.179Z,3.00
2023-03-16T18:25:55.894Z,2.97
2023-03-16T18:28:23.271Z,2.92
2023-03-16T18:30:54.238Z,2.50
2023-03-16T18:33:21.674Z,3.20
2023-03-16T18:35:48.830Z,2.70
2023-03-16T18:38:18.226Z,3.15
2023-03-16T18:40:44.835Z,2.50
2023-03-16T18:43:17.364Z,5.00
2023-03-16T18:45:45.134Z,3.40
2023-03-16T18:48:18.972Z,3.65
2023-03-16T18:50:45.564Z,3.13
2023-03-16T18:53:15.504Z,3.15
2023-03-16T18:55:45.093Z,2.88
2023-03-16T18:58:16.715Z,3.38
2023-03-16T19:00:44.908Z,3.00
2023-03-16T19:03:33.872Z,2.83
2023-03-16T19:06:01.839Z,3.22
2023-03-16T19:08:29.385Z,3.10
2023-03-16T19:10:57.460Z,3.20
2023-03-16T19:13:24.968Z,2.90
2023-03-16T19:15:53.155Z,3.15
2023-03-16T19:18:19.751Z,2.65
2023-03-16T19:20:50.067Z,2.95
2023-03-16T19:23:18.976Z,2.95
2023-03-16T19:25:46.135Z,3.10
2023-03-16T19:28:19.904Z,3.00
2023-03-16T19:30:50.167Z,2.83
2023-03-16T19:33:22.157Z,2.50
2023-03-16T19:35:52.233Z,2.85
2023-03-16T19:38:20.136Z,3.95
2023-03-16T19:40:50.882Z,3.30
2023-03-16T19:43:18.465Z,3.40
2023-03-16T19:45:45.728Z,3.25
2023-03-16T19:48:14.965Z,2.63
2023-03-16T19:50:41.819Z,2.80
2023-03-16T19:53:14.630Z,3.08
2023-03-16T19:55:41.370Z,2.88
2023-03-16T19:58:15.153Z,2.80
2023-03-16T20:00:42.899Z,2.75
2023-03-16T20:03:11.021Z,3.30
2023-03-16T20:05:39.808Z,2.92
2023-03-16T20:08:14.970Z,2.70
2023-03-16T20:10:41.571Z,3.05
2023-03-16T20:13:10.218Z,2.70
2023-03-16T20:15:37.483Z,3.30
2023-03-16T20:18:04.661Z,3.08
2023-03-16T20:20:34.180Z,3.42
2023-03-16T20:23:01.545Z,2.88
2023-03-16T20:25:32.380Z,3.05
2023-03-16T20:28:02.074Z,3.90
2023-03-16T20:30:29.508Z,2.97
2023-03-16T20:32:56.166Z,2.45
2023-03-16T20:35:24.315Z,3.03
2023-03-16T20:37:52.916Z,2.45
2023-03-16T20:40:20.438Z,3.22
2023-03-16T20:42:47.524Z,3.10
2023-03-16T20:45:16.449Z,2.80
2023-03-16T20:47:43.134Z,2.85
2023-03-16T20:50:20.682Z,2.70
2023-03-16T20:52:48.028Z,2.85
2023-03-16T20:55:16.587Z,2.60
2023-03-16T20:57:47.517Z,3.13
2023-03-16T21:00:20.375Z,3.17
2023-03-16T21:02:47.350Z,2.85
2023-03-16T21:05:15.881Z,3.55
2023-03-16T21:07:42.670Z,2.90
2023-03-16T21:10:09.583Z,3.00
2023-03-16T21:12:39.372Z,2.83
2023-03-16T21:15:14.869Z,3.53
2023-03-16T21:17:41.516Z,2.88
2023-03-16T21:20:15.986Z,2.72
2023-03-16T21:22:42.957Z,2.67
2023-03-16T21:25:17.509Z,3.35
2023-03-16T21:27:44.241Z,2.90
2023-03-16T21:30:30.754Z,3.05
2023-03-16T21:32:59.374Z,2.65
2023-03-16T21:35:33.918Z,2.90
2023-03-16T21:38:01.677Z,3.25
2023-03-16T21:40:28.379Z,2.70
2023-03-16T21:42:55.097Z,2.90
2023-03-16T21:45:21.630Z,3.47
2023-03-16T21:47:48.280Z,3.30
2023-03-16T21:50:22.370Z,3.22
2023-03-16T21:52:49.741Z,3.13
2023-03-16T21:55:23.605Z,2.60
2023-03-16T21:57:51.167Z,2.90
2023-03-16T22:00:19.085Z,3.15
2023-03-16T22:02:46.937Z,2.92
2023-03-16T22:05:23.054Z,2.85
2023-03-16T22:07:49.829Z,2.83
2023-03-16T22:10:16.560Z,2.80
2023-03-16T22:12:43.273Z,2.70
2023-03-16T22:15:09.992Z,3.13
2023-03-16T22:17:37.068Z,3.10
2023-03-16T22:20:13.680Z,2.50
2023-03-16T22:22:40.312Z,2.70
2023-03-16T22:25:13.744Z,2.80
2023-03-16T22:27:40.343Z,2.70
2023-03-16T22:30:07.227Z,2.83
2023-03-16T22:32:33.833Z,2.90
2023-03-16T22:35:00.461Z,2.55
2023-03-16T22:37:29.129Z,2.75
2023-03-16T22:39:57.375Z,3.22
2023-03-16T22:42:31.872Z,2.75
2023-03-16T22:44:58.614Z,2.92
2023-03-16T22:47:32.317Z,2.78
2023-03-16T22:49:59.204Z,2.50
2023-03-16T22:52:28.036Z,2.50
2023-03-16T22:54:54.854Z,2.80
2023-03-16T22:57:21.650Z,2.30
2023-03-16T22:59:48.616Z,2.20
2023-03-16T23:02:15.470Z,1.98
2023-03-16T23:04:42.319Z,2.40
2023-03-16T23:07:13.337Z,2.30
2023-03-16T23:09:40.407Z,2.47
2023-03-16T23:12:19.151Z,2.40
2023-03-16T23:14:45.885Z,2.05
2023-03-16T23:17:19.339Z,2.15
2023-03-16T23:19:46.535Z,2.13
2023-03-16T23:22:13.383Z,2.00
2023-03-16T23:24:39.990Z,2.10
2023-03-16T23:27:32.597Z,2.10
2023-03-16T23:29:59.149Z,2.00
2023-03-16T23:32:26.530Z,2.20
2023-03-16T23:34:53.181Z,2.00
2023-03-16T23:37:19.785Z,2.22
2023-03-16T23:39:47.157Z,2.72
2023-03-16T23:42:13.799Z,2.60
2023-03-16T23:44:40.503Z,1.90
2023-03-16T23:47:07.172Z,2.08
2023-03-16T23:49:35.955Z,2.15
2023-03-16T23:52:02.516Z,2.85
2023-03-16T23:54:30.499Z,2.28
2023-03-16T23:56:57.299Z,1.77
2023-03-16T23:59:24.237Z,1.92
